createdAt,value
2017-05-28T00:00:13.149Z,984.7
2017-05-28T00:01:15.677Z,984.6
2017-05-28T00:02:18.218Z,984.6
2017-05-28T00:03:21.648Z,984.6
2017-05-28T00:04:24.235Z,984.6
2017-05-28T00:05:26.914Z,984.7
2017-05-28T00:06:29.474Z,984.6
2017-05-28T00:07:32.090Z,984.7
2017-05-28T00:08:35.257Z,984.6
2017-05-28T00:09:37.739Z,984.6
2017-05-28T00:10:40.818Z,984.7
2017-05-28T00:11:43.324Z,984.7
2017-05-28T00:12:45.809Z,984.7
2017-05-28T00:13:48.269Z,984.7
2017-05-28T00:14:50.762Z,984.7
2017-05-28T00:15:53.320Z,984.6
2017-05-28T00:16:55.838Z,984.7
2017-05-28T00:17:58.336Z,984.6
2017-05-28T00:19:00.969Z,984.6
2017-05-28T00:20:07.191Z,984.7
2017-05-28T00:21:09.817Z,984.6
2017-05-28T00:22:12.277Z,984.7
2017-05-28T00:23:14.775Z,984.6
2017-05-28T00:24:18.080Z,984.6
2017-05-28T00:25:20.604Z,984.6
2017-05-28T00:26:23.927Z,984.6
2017-05-28T00:27:26.562Z,984.2
2017-05-28T00:28:29.080Z,984.6
2017-05-28T00:29:31.622Z,984.1
2017-05-28T00:30:34.114Z,984.7
2017-05-28T00:31:36.642Z,984.7
2017-05-28T00:32:39.134Z,984.6
2017-05-28T00:33:42.379Z,984.7
2017-05-28T00:34:44.909Z,984.7
2017-05-28T00:35:47.450Z,984.7
2017-05-28T00:36:49.945Z,984.7
2017-05-28T00:37:52.561Z,984.7
2017-05-28T00:38:55.077Z,984.7
2017-05-28T00:39:57.547Z,984.7
2017-05-28T00:41:00.105Z,984.7
2017-05-28T00:42:02.745Z,984.7
2017-05-28T00:43:05.543Z,984.7
2017-05-28T00:44:08.154Z,984.7
2017-05-28T00:45:11.703Z,984.7
2017-05-28T00:46:14.262Z,984.7
2017-05-28T00:47:16.803Z,984.7
2017-05-28T00:48:19.393Z,984.8
2017-05-28T00:49:24.496Z,984.7
2017-05-28T00:50:27.276Z,984.8
2017-05-28T00:51:29.774Z,984.8
2017-05-28T00:52:32.307Z,984.8
2017-05-28T00:53:34.850Z,984.7
2017-05-28T00:54:37.384Z,984.8
2017-05-28T00:55:40.034Z,984.8
2017-05-28T00:56:42.538Z,984.8
2017-05-28T00:57:45.001Z,984.8
2017-05-28T00:58:47.467Z,984.8
2017-05-28T00:59:49.980Z,984.7
2017-05-28T01:00:52.647Z,984.7
2017-05-28T01:01:55.164Z,984.4
2017-05-28T01:02:57.640Z,984.7
2017-05-28T01:04:00.176Z,984.7
2017-05-28T01:05:04.890Z,984.7
2017-05-28T01:06:07.540Z,984.7
2017-05-28T01:07:10.018Z,984.7
2017-05-28T01:08:12.630Z,984.7
2017-05-28T01:09:15.294Z,984.7
2017-05-28T01:10:19.410Z,984.7
2017-05-28T01:11:22.053Z,984.7
2017-05-28T01:12:25.829Z,984.7
2017-05-28T01:13:28.588Z,984.7
2017-05-28T01:14:31.321Z,984.7
2017-05-28T01:15:34.103Z,984.7
2017-05-28T01:16:36.778Z,984.7
2017-05-28T01:17:39.427Z,984.7
2017-05-28T01:18:41.858Z,984.7
2017-05-28T01:19:44.297Z,984.7
2017-05-28T01:20:46.760Z,984.7
2017-05-28T01:21:49.233Z,984.7
2017-05-28T01:22:51.736Z,984.7
2017-05-28T01:23:54.217Z,984.7
2017-05-28T01:24:56.707Z,984.7
2017-05-28T01:25:59.134Z,984.7
2017-05-28T01:27:01.663Z,984.3
2017-05-28T01:28:04.214Z,984.6
2017-05-28T01:29:06.733Z,984.6
2017-05-28T01:30:09.394Z,984.7
2017-05-28T01:31:11.998Z,984.7
2017-05-28T01:32:14.533Z,984.7
2017-05-28T01:33:17.096Z,984.7
2017-05-28T01:34:20.359Z,984.7
2017-05-28T01:35:22.931Z,984.7
2017-05-28T01:36:25.386Z,984.7
2017-05-28T01:37:27.970Z,984.7
2017-05-28T01:38:30.597Z,984.8
2017-05-28T01:39:33.098Z,984.8
2017-05-28T01:40:35.636Z,984.7
2017-05-28T01:41:38.065Z,984.7
2017-05-28T01:42:40.553Z,984.7
2017-05-28T01:43:43.015Z,984.7
2017-05-28T01:44:45.453Z,984.7
2017-05-28T01:45:47.923Z,984.7
2017-05-28T01:46:50.382Z,984.6
2017-05-28T01:47:52.854Z,984.6
2017-05-28T01:48:55.383Z,984.6
2017-05-28T01:49:57.919Z,984.6
2017-05-28T01:51:00.341Z,984.6
2017-05-28T01:52:02.871Z,984.5
2017-05-28T01:53:05.393Z,984.5
2017-05-28T01:54:07.818Z,984.5
2017-05-28T01:55:11.017Z,984.6
2017-05-28T01:56:13.494Z,984.6
2017-05-28T01:57:15.963Z,984.6
2017-05-28T01:58:18.646Z,984.5
2017-05-28T01:59:21.255Z,984.6
2017-05-28T02:00:23.927Z,984.5
2017-05-28T02:01:26.450Z,984.6
2017-05-28T02:02:29.009Z,984.6
2017-05-28T02:03:31.547Z,984.5
2017-05-28T02:04:34.030Z,984.5
2017-05-28T02:05:36.707Z,984.5
2017-05-28T02:06:39.185Z,984.5
2017-05-28T02:07:41.931Z,984.5
2017-05-28T02:08:44.413Z,984.5
2017-05-28T02:09:46.846Z,984.5
2017-05-28T02:10:49.331Z,984.4
2017-05-28T02:11:51.806Z,984.5
2017-05-28T02:12:54.314Z,984.5
2017-05-28T02:13:56.759Z,984.5
2017-05-28T02:14:59.209Z,984.4
2017-05-28T02:16:01.732Z,984.4
2017-05-28T02:17:04.230Z,984.4
2017-05-28T02:18:07.242Z,984.4
2017-05-28T02:19:09.686Z,984.4
2017-05-28T02:20:16.327Z,984.5
2017-05-28T02:21:18.868Z,984.4
2017-05-28T02:22:21.417Z,984.3
2017-05-28T02:23:23.968Z,984.4
2017-05-28T02:24:26.475Z,984.4
2017-05-28T02:25:29.035Z,984.4
2017-05-28T02:26:31.469Z,984.3
2017-05-28T02:27:33.907Z,984.4
2017-05-28T02:28:36.366Z,984.4
2017-05-28T02:29:39.530Z,984.4
2017-05-28T02:30:42.102Z,984.5
2017-05-28T02:31:44.566Z,984.4
2017-05-28T02:32:47.060Z,984.3
2017-05-28T02:33:49.533Z,984.4
2017-05-28T02:34:52.060Z,984.3
2017-05-28T02:35:54.609Z,984
2017-05-28T02:36:57.076Z,984.4
2017-05-28T02:37:59.525Z,984.3
2017-05-28T02:39:02.015Z,984.3
2017-05-28T02:40:07.049Z,984.3
2017-05-28T02:41:09.532Z,984.3
2017-05-28T02:42:11.969Z,984.3
2017-05-28T02:43:15.232Z,984.3
2017-05-28T02:44:17.812Z,984.2
2017-05-28T02:45:20.321Z,984.3
2017-05-28T02:46:22.839Z,984.2
2017-05-28T02:47:26.000Z,984.2
2017-05-28T02:48:28.526Z,984.2
2017-05-28T02:49:31.485Z,984.2
2017-05-28T02:50:33.986Z,984.2
2017-05-28T02:51:36.463Z,984.2
2017-05-28T02:52:38.883Z,984.2
2017-05-28T02:53:41.444Z,984.2
2017-05-28T02:54:43.909Z,984.2
2017-05-28T02:55:46.380Z,984.2
2017-05-28T02:56:48.889Z,984.3
2017-05-28T02:57:51.366Z,984.2
2017-05-28T02:58:54.595Z,984.3
2017-05-28T02:59:57.070Z,984.3
2017-05-28T03:00:59.555Z,984.3
2017-05-28T03:02:02.022Z,984.4
2017-05-28T03:03:04.538Z,984.4
2017-05-28T03:04:07.111Z,984.4
2017-05-28T03:05:09.601Z,984.4
2017-05-28T03:06:12.203Z,984.3
2017-05-28T03:07:14.781Z,984.3
2017-05-28T03:08:17.288Z,984.3
2017-05-28T03:09:19.965Z,984.3
2017-05-28T03:10:22.569Z,984.3
2017-05-28T03:11:25.051Z,984.3
2017-05-28T03:12:27.557Z,984.3
2017-05-28T03:13:30.027Z,984.3
2017-05-28T03:14:32.486Z,984.3
2017-05-28T03:15:34.975Z,984.4
2017-05-28T03:16:37.395Z,984.4
2017-05-28T03:17:39.864Z,984.3
2017-05-28T03:18:42.293Z,984.4
2017-05-28T03:19:44.772Z,984.4
2017-05-28T03:20:48.388Z,984.4
2017-05-28T03:21:50.793Z,984.4
2017-05-28T03:22:53.263Z,984.3
2017-05-28T03:23:55.673Z,984.3
2017-05-28T03:24:58.146Z,984.3
2017-05-28T03:26:00.643Z,984.3
2017-05-28T03:27:03.192Z,984.3
2017-05-28T03:28:09.660Z,984.3
2017-05-28T03:29:12.211Z,984.4
2017-05-28T03:30:14.774Z,984.3
2017-05-28T03:31:17.802Z,984.3
2017-05-28T03:32:20.325Z,984.3
2017-05-28T03:33:22.854Z,984.2
2017-05-28T03:34:26.086Z,984.3
2017-05-28T03:35:28.688Z,984.3
2017-05-28T03:36:31.170Z,984.3
2017-05-28T03:37:33.569Z,984.3
2017-05-28T03:38:36.051Z,984.3
2017-05-28T03:39:38.574Z,984.4
2017-05-28T03:40:41.401Z,984.4
2017-05-28T03:41:43.893Z,984.4
2017-05-28T03:42:46.373Z,984.4
2017-05-28T03:43:48.822Z,984.4
2017-05-28T03:44:51.290Z,984.4
2017-05-28T03:45:53.777Z,984.5
2017-05-28T03:46:56.398Z,984.5
2017-05-28T03:47:59.063Z,984.5
2017-05-28T03:49:01.566Z,984.5
2017-05-28T03:50:05.617Z,984.5
2017-05-28T03:51:08.087Z,984.6
2017-05-28T03:52:10.554Z,984.5
2017-05-28T03:53:13.063Z,984.5
2017-05-28T03:54:16.243Z,984.5
2017-05-28T03:55:18.750Z,984.5
2017-05-28T03:56:21.299Z,984.6
2017-05-28T03:57:23.776Z,984.6
2017-05-28T03:58:26.436Z,984.5
2017-05-28T03:59:28.969Z,984.5
2017-05-28T04:00:32.175Z,984.5
2017-05-28T04:01:34.620Z,984.5
2017-05-28T04:02:37.049Z,984.5
2017-05-28T04:03:39.529Z,984.5
2017-05-28T04:04:41.971Z,984.5
2017-05-28T04:05:44.367Z,984.5
2017-05-28T04:06:47.255Z,984.5
2017-05-28T04:07:49.691Z,984.5
2017-05-28T04:08:52.178Z,984.5
2017-05-28T04:09:54.673Z,984.5
2017-05-28T04:10:57.126Z,984.5
2017-05-28T04:11:59.608Z,984.5
2017-05-28T04:13:02.085Z,984.6
2017-05-28T04:14:04.746Z,984.6
2017-05-28T04:15:07.436Z,984.6
2017-05-28T04:16:09.918Z,984.6
2017-05-28T04:17:12.442Z,984.5
2017-05-28T04:18:14.942Z,984.6
2017-05-28T04:19:17.546Z,984.6
2017-05-28T04:20:20.726Z,984.5
2017-05-28T04:21:23.325Z,984.5
2017-05-28T04:22:25.923Z,984.5
2017-05-28T04:23:28.447Z,984.5
2017-05-28T04:24:31.000Z,984.5
2017-05-28T04:25:33.658Z,984.5
2017-05-28T04:26:36.903Z,984.5
2017-05-28T04:27:39.433Z,984.5
2017-05-28T04:28:42.125Z,984.5
2017-05-28T04:29:44.635Z,984.5
2017-05-28T04:30:47.897Z,984.5
2017-05-28T04:31:50.387Z,984.5
2017-05-28T04:32:52.874Z,984.5
2017-05-28T04:33:55.454Z,984.5
2017-05-28T04:34:57.884Z,984.5
2017-05-28T04:36:00.490Z,984.5
2017-05-28T04:37:02.958Z,984.5
2017-05-28T04:38:05.445Z,984.5
2017-05-28T04:39:07.934Z,984.5
2017-05-28T04:40:10.692Z,984.5
2017-05-28T04:41:13.373Z,984.5
2017-05-28T04:42:16.638Z,984.5
2017-05-28T04:43:19.122Z,984.5
2017-05-28T04:44:21.683Z,984.5
2017-05-28T04:45:24.427Z,984.5
2017-05-28T04:46:26.895Z,984.5
2017-05-28T04:47:29.451Z,984.5
2017-05-28T04:48:32.015Z,984.4
2017-05-28T04:49:34.645Z,984.5
2017-05-28T04:50:37.191Z,984.5
2017-05-28T04:51:39.638Z,984.5
2017-05-28T04:52:42.031Z,984.5
2017-05-28T04:53:44.464Z,984.5
2017-05-28T04:54:46.908Z,984.5
2017-05-28T04:55:50.367Z,984.5
2017-05-28T04:56:53.032Z,984.5
2017-05-28T04:57:55.462Z,984.5
2017-05-28T04:58:57.929Z,984.5
2017-05-28T05:00:00.388Z,984.4
2017-05-28T05:01:03.028Z,984.5
2017-05-28T05:02:10.119Z,984.4
2017-05-28T05:03:12.626Z,984.4
2017-05-28T05:04:15.090Z,984.4
2017-05-28T05:05:18.172Z,984.4
2017-05-28T05:06:20.714Z,984.4
2017-05-28T05:07:23.441Z,984.5
2017-05-28T05:08:25.973Z,984.5
2017-05-28T05:09:28.654Z,984.5
2017-05-28T05:10:31.308Z,984.5
2017-05-28T05:11:33.724Z,984.5
2017-05-28T05:12:36.181Z,984.4
2017-05-28T05:13:38.653Z,984.5
2017-05-28T05:14:41.127Z,984.5
2017-05-28T05:15:43.586Z,984.5
2017-05-28T05:16:46.039Z,984.5
2017-05-28T05:17:48.492Z,984.5
2017-05-28T05:18:50.933Z,984.6
2017-05-28T05:19:53.547Z,984.5
2017-05-28T05:20:56.671Z,984.6
2017-05-28T05:21:59.161Z,984.6
2017-05-28T05:23:01.614Z,984.6
2017-05-28T05:24:04.679Z,984.6
2017-05-28T05:25:07.740Z,984.5
2017-05-28T05:26:11.215Z,984.6
2017-05-28T05:27:13.664Z,984.5
2017-05-28T05:28:16.156Z,984.5
2017-05-28T05:29:18.737Z,984.4
2017-05-28T05:30:21.410Z,984.4
2017-05-28T05:31:23.874Z,984.2
2017-05-28T05:32:26.361Z,984.4
2017-05-28T05:33:28.958Z,984.4
2017-05-28T05:34:31.461Z,984.4
2017-05-28T05:35:34.015Z,984.4
2017-05-28T05:36:36.435Z,984.4
2017-05-28T05:37:39.469Z,984.4
2017-05-28T05:38:41.964Z,984.4
2017-05-28T05:39:44.380Z,984.5
2017-05-28T05:40:46.836Z,984.5
2017-05-28T05:41:50.512Z,984.4
2017-05-28T05:42:52.986Z,984.5
2017-05-28T05:43:55.808Z,984.5
2017-05-28T05:44:58.256Z,984.5
2017-05-28T05:46:00.707Z,984.5
2017-05-28T05:47:03.393Z,984.4
2017-05-28T05:48:06.006Z,984.1
2017-05-28T05:49:08.644Z,984.4
2017-05-28T05:50:12.387Z,984.4
2017-05-28T05:51:15.443Z,984.4
2017-05-28T05:52:17.985Z,984.4
2017-05-28T05:53:22.208Z,984.4
2017-05-28T05:54:24.752Z,984.4
2017-05-28T05:55:28.409Z,984.4
2017-05-28T05:56:31.048Z,984.4
2017-05-28T05:57:33.614Z,984.4
2017-05-28T05:58:36.033Z,984.4
2017-05-28T05:59:38.855Z,984.4
2017-05-28T06:00:41.633Z,984.5
2017-05-28T06:01:44.124Z,984.4
2017-05-28T06:02:48.803Z,984.5
2017-05-28T06:03:51.197Z,984.5
2017-05-28T06:04:53.680Z,984.5
2017-05-28T06:05:56.129Z,984.5
2017-05-28T06:06:58.579Z,984.5
2017-05-28T06:08:01.097Z,984.5
2017-05-28T06:09:04.312Z,984.4
2017-05-28T06:10:10.900Z,984.5
2017-05-28T06:11:13.425Z,984.6
2017-05-28T06:12:15.923Z,984.6
2017-05-28T06:13:18.449Z,984.5
2017-05-28T06:14:21.005Z,984.5
2017-05-28T06:15:24.002Z,984.5
2017-05-28T06:16:26.542Z,984.6
2017-05-28T06:17:29.157Z,984.5
2017-05-28T06:18:31.802Z,984.5
2017-05-28T06:19:34.375Z,984.5
2017-05-28T06:20:38.919Z,984.5
2017-05-28T06:21:41.411Z,984.5
2017-05-28T06:22:43.863Z,984.5
2017-05-28T06:23:46.387Z,984.5
2017-05-28T06:24:48.844Z,984.5
2017-05-28T06:25:51.448Z,984.4
2017-05-28T06:26:54.073Z,984.5
2017-05-28T06:27:57.405Z,984.5
2017-05-28T06:28:59.899Z,984.4
2017-05-28T06:30:06.753Z,984.5
2017-05-28T06:31:09.617Z,984.4
2017-05-28T06:32:12.219Z,984.5
2017-05-28T06:33:16.771Z,984.4
2017-05-28T06:34:19.209Z,984.4
2017-05-28T06:35:21.718Z,984.4
2017-05-28T06:36:24.174Z,984.4
2017-05-28T06:37:26.776Z,984.4
2017-05-28T06:38:29.280Z,984.4
2017-05-28T06:39:31.822Z,984.4
2017-05-28T06:40:34.388Z,984.5
2017-05-28T06:41:37.563Z,984.4
2017-05-28T06:42:40.038Z,984.5
2017-05-28T06:43:42.457Z,984.4
2017-05-28T06:44:44.979Z,984.4
2017-05-28T06:45:47.425Z,984.4
2017-05-28T06:46:49.962Z,984.3
2017-05-28T06:47:52.402Z,984.3
2017-05-28T06:48:54.882Z,984.3
2017-05-28T06:49:57.935Z,984.4
2017-05-28T06:51:00.516Z,984.4
2017-05-28T06:52:03.699Z,984.3
2017-05-28T06:53:08.040Z,984.3
2017-05-28T06:54:10.512Z,984.3
2017-05-28T06:55:13.189Z,984.3
2017-05-28T06:56:16.447Z,984.3
2017-05-28T06:57:19.078Z,984.3
2017-05-28T06:58:21.738Z,984.2
2017-05-28T06:59:24.340Z,984.3
2017-05-28T07:00:26.945Z,984.3
2017-05-28T07:01:31.114Z,984.3
2017-05-28T07:02:33.619Z,984.4
2017-05-28T07:03:36.064Z,984.2
2017-05-28T07:04:38.528Z,984.4
2017-05-28T07:05:41.368Z,984.4
2017-05-28T07:06:43.875Z,984.2
2017-05-28T07:07:46.474Z,984.3
2017-05-28T07:08:49.090Z,984.4
2017-05-28T07:09:51.618Z,984.4
2017-05-28T07:10:54.677Z,984.4
2017-05-28T07:11:57.099Z,984.4
2017-05-28T07:12:59.870Z,984.4
2017-05-28T07:14:02.342Z,984.6
2017-05-28T07:15:11.274Z,984.4
2017-05-28T07:16:13.869Z,984.5
2017-05-28T07:17:16.529Z,984.6
2017-05-28T07:18:19.378Z,984.6
2017-05-28T07:19:22.559Z,984.6
2017-05-28T07:20:25.181Z,984.6
2017-05-28T07:21:28.300Z,984.4
2017-05-28T07:22:30.807Z,984.5
2017-05-28T07:23:33.462Z,984.6
2017-05-28T07:24:35.949Z,984.7
2017-05-28T07:25:38.474Z,984.7
2017-05-28T07:26:41.659Z,984.7
2017-05-28T07:27:44.730Z,984.8
2017-05-28T07:28:47.788Z,984.8
2017-05-28T07:29:50.488Z,984.8
2017-05-28T07:30:53.107Z,984.8
2017-05-28T07:31:55.585Z,984.9
2017-05-28T07:32:59.406Z,984.9
2017-05-28T07:34:01.988Z,984.9
2017-05-28T07:35:11.826Z,984.8
2017-05-28T07:36:15.099Z,984.8
2017-05-28T07:37:17.671Z,984.8
2017-05-28T07:38:20.250Z,984.9
2017-05-28T07:39:22.834Z,984.8
2017-05-28T07:40:25.529Z,984.9
2017-05-28T07:41:28.029Z,984.8
2017-05-28T07:42:30.596Z,984.6
2017-05-28T07:43:33.264Z,984.8
2017-05-28T07:44:40.093Z,984.8
2017-05-28T07:45:42.928Z,984.8
2017-05-28T07:46:45.562Z,984.8
2017-05-28T07:47:48.041Z,984.8
2017-05-28T07:48:50.529Z,984.8
2017-05-28T07:49:53.164Z,984.8
2017-05-28T07:50:56.567Z,984.8
2017-05-28T07:52:00.089Z,984.8
2017-05-28T07:53:02.669Z,984.9
2017-05-28T07:54:07.547Z,984.8
2017-05-28T07:55:13.325Z,984.8
2017-05-28T07:56:16.625Z,984.9
2017-05-28T07:57:19.763Z,984.8
2017-05-28T07:58:23.020Z,984.8
2017-05-28T07:59:25.852Z,984.8
2017-05-28T08:00:30.150Z,984.7
2017-05-28T08:01:33.393Z,984.8
2017-05-28T08:02:38.472Z,984.8
2017-05-28T08:03:41.020Z,984.8
2017-05-28T08:04:43.670Z,984.8
2017-05-28T08:05:46.688Z,984.8
2017-05-28T08:06:49.247Z,984.8
2017-05-28T08:07:51.879Z,984.8
2017-05-28T08:08:54.545Z,984.8
2017-05-28T08:09:57.049Z,984.8
2017-05-28T08:11:01.191Z,984.7
2017-05-28T08:12:09.053Z,984.7
2017-05-28T08:13:11.785Z,984.7
2017-05-28T08:14:14.371Z,984.7
2017-05-28T08:15:18.555Z,984.8
2017-05-28T08:16:21.146Z,984.7
2017-05-28T08:17:23.810Z,984.7
2017-05-28T08:18:27.098Z,984.7
2017-05-28T08:19:29.646Z,984.8
2017-05-28T08:20:32.521Z,984.7
2017-05-28T08:21:35.557Z,984.7
2017-05-28T08:22:38.161Z,984.7
2017-05-28T08:23:41.245Z,984.7
2017-05-28T08:24:43.773Z,984.7
2017-05-28T08:25:46.900Z,984.6
2017-05-28T08:26:49.456Z,984.6
2017-05-28T08:27:51.995Z,984.7
2017-05-28T08:28:54.606Z,984.6
2017-05-28T08:29:57.167Z,984.3
2017-05-28T08:31:00.723Z,984.6
2017-05-28T08:32:06.053Z,984.6
2017-05-28T08:33:08.678Z,984.6
2017-05-28T08:34:11.336Z,984.6
2017-05-28T08:35:15.315Z,984.7
2017-05-28T08:36:18.121Z,984.6
2017-05-28T08:37:20.875Z,984.6
2017-05-28T08:38:25.028Z,984.6
2017-05-28T08:39:27.709Z,984.6
2017-05-28T08:40:30.475Z,984.6
2017-05-28T08:41:34.003Z,984.5
2017-05-28T08:42:37.263Z,984.6
2017-05-28T08:43:43.229Z,984.6
2017-05-28T08:44:46.938Z,984.6
2017-05-28T08:45:49.690Z,984.6
2017-05-28T08:46:54.536Z,984.6
2017-05-28T08:47:57.237Z,984.6
2017-05-28T08:48:59.939Z,984.6
2017-05-28T08:50:05.045Z,984.6
2017-05-28T08:51:08.773Z,984.6
2017-05-28T08:52:11.406Z,984.6
2017-05-28T08:53:15.148Z,984.6
2017-05-28T08:54:18.662Z,984.6
2017-05-28T08:55:21.326Z,984.6
2017-05-28T08:56:24.849Z,984.6
2017-05-28T08:57:27.627Z,984.5
2017-05-28T08:58:30.920Z,984.6
2017-05-28T08:59:33.579Z,984.6
2017-05-28T09:00:38.375Z,984.6
2017-05-28T09:01:41.912Z,984.6
2017-05-28T09:02:44.724Z,984.6
2017-05-28T09:03:48.405Z,984.5
2017-05-28T09:04:51.423Z,984.5
2017-05-28T09:05:54.474Z,984.5
2017-05-28T09:06:57.004Z,984.5
2017-05-28T09:07:59.631Z,984.5
2017-05-28T09:09:03.311Z,984.5
2017-05-28T09:10:13.294Z,984.4
2017-05-28T09:11:16.602Z,984.4
2017-05-28T09:12:19.588Z,984.4
2017-05-28T09:13:22.174Z,984.4
2017-05-28T09:14:24.818Z,984.4
2017-05-28T09:15:28.729Z,984.4
2017-05-28T09:16:32.828Z,984.4
2017-05-28T09:17:35.460Z,984.3
2017-05-28T09:18:40.174Z,984.3
2017-05-28T09:19:42.777Z,984.3
2017-05-28T09:20:46.160Z,984.2
2017-05-28T09:21:48.837Z,984.3
2017-05-28T09:22:51.409Z,984.4
2017-05-28T09:23:54.135Z,984.3
2017-05-28T09:24:56.751Z,984.3
2017-05-28T09:26:04.321Z,984.3
2017-05-28T09:27:08.370Z,984.2
2017-05-28T09:28:11.211Z,984.2
2017-05-28T09:29:14.534Z,984.3
2017-05-28T09:30:18.631Z,984.3
2017-05-28T09:31:21.432Z,984.3
2017-05-28T09:32:24.242Z,984.3
2017-05-28T09:33:28.304Z,984.3
2017-05-28T09:34:33.147Z,984.2
2017-05-28T09:35:38.302Z,984.3
2017-05-28T09:36:42.471Z,984.4
2017-05-28T09:37:47.680Z,984.2
2017-05-28T09:38:50.364Z,984.4
2017-05-28T09:39:53.017Z,984.3
2017-05-28T09:40:55.606Z,984.3
2017-05-28T09:41:58.236Z,984.3
2017-05-28T09:43:00.999Z,984.3
2017-05-28T09:44:05.060Z,984.3
2017-05-28T09:45:12.443Z,984.4
2017-05-28T09:46:16.943Z,984.3
2017-05-28T09:47:19.984Z,984.3
2017-05-28T09:48:23.281Z,984.3
2017-05-28T09:49:26.820Z,984.3
2017-05-28T09:50:29.417Z,984.3
2017-05-28T09:51:34.299Z,984.2
2017-05-28T09:52:37.468Z,984.2
2017-05-28T09:53:40.159Z,984.2
2017-05-28T09:54:42.824Z,984.3
2017-05-28T09:55:45.552Z,984.3
2017-05-28T09:56:48.166Z,984.4
2017-05-28T09:57:50.756Z,984.4
2017-05-28T09:58:53.461Z,984.3
2017-05-28T09:59:56.071Z,984.3
2017-05-28T10:00:59.367Z,984.3
2017-05-28T10:02:04.964Z,984.4
2017-05-28T10:03:07.627Z,984.4
2017-05-28T10:04:11.334Z,984.4
2017-05-28T10:05:17.519Z,984.3
2017-05-28T10:06:20.185Z,984.4
2017-05-28T10:07:22.905Z,984.3
2017-05-28T10:08:26.251Z,984.4
2017-05-28T10:09:28.852Z,984.4
2017-05-28T10:10:31.599Z,984.4
2017-05-28T10:11:34.281Z,984.4
2017-05-28T10:12:37.104Z,984.4
2017-05-28T10:13:39.758Z,984.4
2017-05-28T10:14:42.396Z,984.4
2017-05-28T10:15:45.279Z,984.4
2017-05-28T10:16:48.537Z,984.4
2017-05-28T10:17:51.125Z,984.4
2017-05-28T10:18:54.271Z,984.4
2017-05-28T10:19:57.718Z,984.4
2017-05-28T10:21:00.328Z,984.4
2017-05-28T10:22:03.020Z,984.4
2017-05-28T10:23:06.748Z,984.4
2017-05-28T10:24:10.754Z,984
2017-05-28T10:25:14.259Z,984.3
2017-05-28T10:26:16.960Z,984.4
2017-05-28T10:27:19.659Z,984.4
2017-05-28T10:28:22.640Z,984.5
2017-05-28T10:29:25.369Z,984.4
2017-05-28T10:30:28.485Z,984.4
2017-05-28T10:31:31.691Z,984.4
2017-05-28T10:32:41.940Z,984.4
2017-05-28T10:33:44.571Z,984.4
2017-05-28T10:34:47.793Z,984.4
2017-05-28T10:35:52.417Z,984.5
2017-05-28T10:36:55.112Z,984.3
2017-05-28T10:37:57.780Z,984.3
2017-05-28T10:39:00.337Z,984.2
2017-05-28T10:40:11.610Z,984
2017-05-28T10:41:14.306Z,984.2
2017-05-28T10:42:18.628Z,984.2
2017-05-28T10:43:21.381Z,984.2
2017-05-28T10:44:25.116Z,984.2
2017-05-28T10:45:31.062Z,984.1
2017-05-28T10:46:34.787Z,984.1
2017-05-28T10:47:37.600Z,984.1
2017-05-28T10:48:41.209Z,984.1
2017-05-28T10:49:44.864Z,984.2
2017-05-28T10:50:51.121Z,984.2
2017-05-28T10:51:54.063Z,984.1
2017-05-28T10:52:56.684Z,984.2
2017-05-28T10:53:59.421Z,984
2017-05-28T10:55:02.780Z,984.3
2017-05-28T10:56:08.772Z,984.3
2017-05-28T10:57:11.508Z,984.2
2017-05-28T10:58:14.214Z,984.2
2017-05-28T10:59:19.632Z,984.1
2017-05-28T11:00:22.642Z,984.2
2017-05-28T11:01:26.806Z,984
2017-05-28T11:02:31.184Z,984
2017-05-28T11:03:34.132Z,984.1
2017-05-28T11:04:36.778Z,984.1
2017-05-28T11:05:40.340Z,984.1
2017-05-28T11:06:43.070Z,983.9
2017-05-28T11:07:45.799Z,984.1
2017-05-28T11:08:48.531Z,984.1
2017-05-28T11:09:51.148Z,984.1
2017-05-28T11:10:54.881Z,984.1
2017-05-28T11:11:58.118Z,984.1
2017-05-28T11:13:01.017Z,984.1
2017-05-28T11:14:04.725Z,984.1
2017-05-28T11:15:10.981Z,984.1
2017-05-28T11:16:15.348Z,983.9
2017-05-28T11:17:18.040Z,984.1
2017-05-28T11:18:21.381Z,984.1
2017-05-28T11:19:25.437Z,984.1
2017-05-28T11:20:29.770Z,984
2017-05-28T11:21:32.550Z,984
2017-05-28T11:22:35.878Z,984
2017-05-28T11:23:39.085Z,984
2017-05-28T11:24:41.807Z,984
2017-05-28T11:25:45.004Z,983.9
2017-05-28T11:26:48.757Z,983.9
2017-05-28T11:27:53.022Z,983.9
2017-05-28T11:28:55.788Z,983.9
2017-05-28T11:29:58.500Z,983.9
2017-05-28T11:31:01.237Z,983.9
2017-05-28T11:32:07.593Z,983.8
2017-05-28T11:33:12.090Z,983.8
2017-05-28T11:34:15.680Z,983.8
2017-05-28T11:35:21.077Z,983.8
2017-05-28T11:36:24.469Z,983.8
2017-05-28T11:37:27.531Z,983.9
2017-05-28T11:38:30.236Z,983.9
2017-05-28T11:39:34.315Z,983.9
2017-05-28T11:40:41.271Z,983.9
2017-05-28T11:41:44.499Z,984
2017-05-28T11:42:48.209Z,984
2017-05-28T11:43:50.820Z,984
2017-05-28T11:44:53.564Z,984
2017-05-28T11:45:56.234Z,984
2017-05-28T11:46:58.895Z,984
2017-05-28T11:48:01.536Z,984
2017-05-28T11:49:05.892Z,984
2017-05-28T11:50:09.856Z,984
2017-05-28T11:51:12.841Z,984
2017-05-28T11:52:16.709Z,984
2017-05-28T11:53:20.160Z,984
2017-05-28T11:54:22.975Z,984.1
2017-05-28T11:55:26.015Z,984.1
2017-05-28T11:56:28.721Z,984
2017-05-28T11:57:31.499Z,984
2017-05-28T11:58:34.461Z,984
2017-05-28T11:59:37.240Z,984.1
2017-05-28T12:00:39.938Z,984.1
2017-05-28T12:01:43.862Z,984.1
2017-05-28T12:02:46.418Z,984.1
2017-05-28T12:03:49.181Z,984
2017-05-28T12:04:51.847Z,984
2017-05-28T12:05:55.099Z,984.1
2017-05-28T12:06:57.690Z,984.1
2017-05-28T12:08:00.310Z,984.1
2017-05-28T12:09:13.802Z,984.1
2017-05-28T12:10:18.748Z,984.2
2017-05-28T12:11:22.935Z,984.1
2017-05-28T12:12:25.721Z,984.1
2017-05-28T12:13:28.960Z,984.1
2017-05-28T12:14:33.228Z,984.1
2017-05-28T12:15:37.666Z,983.9
2017-05-28T12:16:44.810Z,984.1
2017-05-28T12:17:47.374Z,984.1
2017-05-28T12:18:50.065Z,984
2017-05-28T12:19:52.836Z,984
2017-05-28T12:20:55.835Z,984
2017-05-28T12:21:58.464Z,984
2017-05-28T12:23:01.115Z,984.1
2017-05-28T12:24:06.513Z,984.1
2017-05-28T12:25:14.548Z,984.1
2017-05-28T12:26:20.946Z,984.1
2017-05-28T12:27:23.752Z,984.1
2017-05-28T12:28:26.997Z,984.1
2017-05-28T12:29:29.791Z,984.2
2017-05-28T12:30:33.466Z,984.2
2017-05-28T12:31:36.758Z,984.2
2017-05-28T12:32:41.446Z,984.2
2017-05-28T12:33:44.275Z,984.1
2017-05-28T12:34:47.543Z,984
2017-05-28T12:35:51.380Z,984.2
2017-05-28T12:36:54.770Z,984.1
2017-05-28T12:37:58.281Z,984.2
2017-05-28T12:39:00.922Z,984.2
2017-05-28T12:40:13.038Z,984.1
2017-05-28T12:41:16.402Z,984
2017-05-28T12:42:19.580Z,984.2
2017-05-28T12:43:23.557Z,984.2
2017-05-28T12:44:27.005Z,984
2017-05-28T12:45:31.320Z,984.2
2017-05-28T12:46:35.408Z,984.3
2017-05-28T12:47:38.076Z,984.3
2017-05-28T12:48:40.810Z,984.3
2017-05-28T12:49:43.594Z,984.3
2017-05-28T12:50:47.746Z,984.3
2017-05-28T12:51:51.895Z,984.2
2017-05-28T12:52:54.550Z,984.4
2017-05-28T12:53:57.219Z,984.4
2017-05-28T12:55:00.819Z,984.3
2017-05-28T12:56:06.442Z,984.1
2017-05-28T12:57:09.851Z,984.3
2017-05-28T12:58:13.936Z,984.3
2017-05-28T12:59:18.828Z,984.3
2017-05-28T13:00:37.051Z,984.2
2017-05-28T13:01:41.718Z,984.2
2017-05-28T13:02:45.020Z,984.1
2017-05-28T13:03:48.256Z,984.2
2017-05-28T13:04:51.676Z,983.9
2017-05-28T13:05:55.750Z,984.1
2017-05-28T13:06:58.372Z,984.1
2017-05-28T13:08:01.720Z,984.1
2017-05-28T13:09:06.808Z,984.1
2017-05-28T13:10:13.698Z,984.2
2017-05-28T13:11:16.573Z,984.1
2017-05-28T13:12:20.971Z,984.1
2017-05-28T13:13:25.943Z,984.1
2017-05-28T13:14:28.545Z,984.1
2017-05-28T13:15:34.594Z,984.1
2017-05-28T13:16:37.325Z,984
2017-05-28T13:17:41.333Z,984.1
2017-05-28T13:18:45.103Z,984
2017-05-28T13:19:49.264Z,983.9
2017-05-28T13:20:52.191Z,984.1
2017-05-28T13:21:55.974Z,984.1
2017-05-28T13:22:58.591Z,983.9
2017-05-28T13:24:01.811Z,984
2017-05-28T13:25:14.959Z,984
2017-05-28T13:26:18.296Z,984.1
2017-05-28T13:27:23.140Z,983.9
2017-05-28T13:28:28.417Z,984.1
2017-05-28T13:29:31.978Z,984.1
2017-05-28T13:30:37.501Z,984.1
2017-05-28T13:31:41.587Z,984.1
2017-05-28T13:32:46.079Z,984
2017-05-28T13:33:49.723Z,984
2017-05-28T13:34:55.735Z,984.1
2017-05-28T13:35:58.557Z,984.1